createdAt,value
2023-01-27T00:00:53.617Z,61.72
2023-01-27T00:03:23.709Z,59.78
2023-01-27T00:05:53.540Z,60.70
2023-01-27T00:08:23.476Z,67.55
2023-01-27T00:11:19.244Z,77.32
2023-01-27T00:13:49.159Z,62.22
2023-01-27T00:16:19.146Z,64.03
2023-01-27T00:18:49.028Z,68.57
2023-01-27T00:21:38.444Z,70.30
2023-01-27T00:24:28.072Z,70.82
2023-01-27T00:26:57.834Z,71.20
2023-01-27T00:29:27.690Z,76.93
2023-01-27T00:32:17.241Z,82.53
2023-01-27T00:34:48.247Z,71.20
2023-01-27T00:37:18.711Z,76.05
2023-01-27T00:39:48.546Z,65.32
2023-01-27T00:42:18.375Z,72.57
2023-01-27T00:45:07.715Z,73.85
2023-01-27T00:47:37.371Z,80.88
2023-01-27T00:50:07.751Z,75.38
2023-01-27T00:52:37.641Z,67.50
2023-01-27T00:55:08.086Z,61.63
2023-01-27T00:57:37.785Z,67.07
2023-01-27T01:00:08.623Z,73.03
2023-01-27T01:02:38.947Z,83.97
2023-01-27T01:05:08.781Z,86.28
2023-01-27T01:07:38.640Z,79.20
2023-01-27T01:10:08.894Z,83.68
2023-01-27T01:12:39.768Z,89.47
2023-01-27T01:15:10.170Z,75.63
2023-01-27T01:17:40.102Z,79.32
2023-01-27T01:20:10.962Z,76.65
2023-01-27T01:22:40.804Z,73.15
2023-01-27T01:25:11.187Z,75.22
2023-01-27T01:27:41.160Z,74.75
2023-01-27T01:30:12.065Z,78.28
2023-01-27T01:32:42.172Z,79.72
2023-01-27T01:35:12.245Z,80.45
2023-01-27T01:37:42.090Z,88.07
2023-01-27T01:40:14.493Z,77.63
2023-01-27T01:43:02.444Z,69.32
2023-01-27T01:45:54.952Z,74.82
2023-01-27T01:48:33.198Z,75.72
2023-01-27T01:51:15.606Z,83.97
2023-01-27T01:54:11.704Z,84.60
2023-01-27T01:56:58.123Z,80.32
2023-01-27T01:59:34.580Z,81.43
2023-01-27T02:02:09.207Z,76.32
2023-01-27T02:04:45.095Z,74.75
2023-01-27T02:07:27.499Z,72.50
2023-01-27T02:09:59.333Z,67.03
2023-01-27T02:12:29.458Z,71.63
2023-01-27T02:15:00.747Z,66.63
2023-01-27T02:17:31.313Z,71.35
2023-01-27T02:20:32.956Z,72.63
2023-01-27T02:23:41.841Z,72.43
2023-01-27T02:26:25.644Z,76.78
2023-01-27T02:29:08.063Z,64.75
2023-01-27T02:31:38.319Z,66.35
2023-01-27T02:34:16.596Z,66.93
2023-01-27T02:37:07.859Z,72.07
2023-01-27T02:39:42.295Z,76.97
2023-01-27T02:42:14.366Z,64.25
2023-01-27T02:44:44.195Z,60.17
2023-01-27T02:47:13.945Z,64.05
2023-01-27T02:49:43.909Z,67.38
2023-01-27T02:52:13.784Z,62.25
2023-01-27T02:54:43.633Z,61.95
2023-01-27T02:57:13.472Z,70.20
2023-01-27T02:59:43.316Z,51.63
2023-01-27T03:02:24.700Z,61.92
2023-01-27T03:04:54.453Z,60.17
2023-01-27T03:07:24.110Z,58.10
2023-01-27T03:09:53.988Z,57.45
2023-01-27T03:12:23.812Z,61.28
2023-01-27T03:15:14.557Z,56.85
2023-01-27T03:18:05.240Z,63.80
2023-01-27T03:20:35.030Z,56.92
2023-01-27T03:23:05.943Z,46.05
2023-01-27T03:25:35.889Z,51.25
2023-01-27T03:28:06.009Z,46.20
2023-01-27T03:30:36.549Z,50.05
2023-01-27T03:33:08.239Z,46.58
2023-01-27T03:35:50.005Z,53.35
2023-01-27T03:38:39.452Z,48.05
2023-01-27T03:41:28.757Z,41.45
2023-01-27T03:44:18.241Z,44.67
2023-01-27T03:46:47.932Z,49.75
2023-01-27T03:49:17.708Z,38.20
2023-01-27T03:51:47.552Z,47.17
2023-01-27T03:54:17.443Z,47.75
2023-01-27T03:56:49.576Z,46.83
2023-01-27T03:59:19.372Z,44.25
2023-01-27T04:01:49.235Z,45.03
2023-01-27T04:04:38.582Z,47.20
2023-01-27T04:07:08.497Z,44.20
2023-01-27T04:09:39.384Z,48.92
2023-01-27T04:12:10.053Z,45.78
2023-01-27T04:14:43.956Z,45.83
2023-01-27T04:17:16.413Z,47.53
2023-01-27T04:19:47.499Z,49.75
2023-01-27T04:22:18.842Z,49.03
2023-01-27T04:24:48.693Z,45.70
2023-01-27T04:27:20.579Z,49.22
2023-01-27T04:29:50.753Z,45.70
2023-01-27T04:32:20.794Z,41.30
2023-01-27T04:34:50.618Z,41.63
2023-01-27T04:37:20.437Z,46.42
2023-01-27T04:39:50.329Z,42.05
2023-01-27T04:42:20.497Z,34.17
2023-01-27T04:44:50.253Z,37.58
2023-01-27T04:47:24.392Z,37.28
2023-01-27T04:49:58.318Z,34.55
2023-01-27T04:52:41.945Z,34.08
2023-01-27T04:55:19.989Z,36.80
2023-01-27T05:00:36.114Z,27.70
2023-01-27T05:03:07.856Z,29.65
2023-01-27T05:05:38.149Z,26.23
2023-01-27T05:08:12.814Z,25.80
2023-01-27T05:10:45.040Z,26.60
2023-01-27T05:13:15.304Z,30.75
2023-01-27T05:15:45.415Z,27.48
2023-01-27T05:18:15.531Z,25.95
2023-01-27T05:20:46.466Z,26.10
2023-01-27T05:23:35.821Z,23.02
2023-01-27T05:26:16.442Z,29.00
2023-01-27T05:28:48.484Z,27.02
2023-01-27T05:31:25.013Z,25.00
2023-01-27T05:33:56.367Z,22.40
2023-01-27T05:36:27.862Z,17.50
2023-01-27T05:38:58.778Z,21.88
2023-01-27T05:41:30.545Z,20.30
2023-01-27T05:44:00.659Z,22.52
2023-01-27T05:46:33.119Z,26.23
2023-01-27T05:49:05.921Z,23.80
2023-01-27T05:51:41.593Z,21.10
2023-01-27T05:54:12.502Z,18.35
2023-01-27T05:56:42.599Z,20.77
2023-01-27T05:59:13.536Z,23.90
2023-01-27T06:01:43.415Z,20.83
2023-01-27T06:04:13.663Z,20.75
2023-01-27T06:06:43.543Z,17.23
2023-01-27T06:09:13.584Z,22.05
2023-01-27T06:11:43.492Z,23.95
2023-01-27T06:14:13.429Z,17.83
2023-01-27T06:16:43.392Z,22.77
2023-01-27T06:19:13.511Z,19.60
2023-01-27T06:21:44.426Z,19.30
2023-01-27T06:24:14.512Z,16.15
2023-01-27T06:26:44.319Z,16.20
2023-01-27T06:29:14.093Z,19.63
2023-01-27T06:31:43.913Z,17.90
2023-01-27T06:34:13.677Z,13.73
2023-01-27T06:36:43.514Z,13.27
2023-01-27T06:39:14.596Z,17.50
2023-01-27T06:41:44.531Z,15.75
2023-01-27T06:44:17.129Z,15.82
2023-01-27T06:46:47.045Z,18.33
2023-01-27T06:49:17.014Z,16.73
2023-01-27T06:51:46.941Z,16.42
2023-01-27T06:54:16.938Z,15.73
2023-01-27T06:56:46.771Z,21.75
2023-01-27T06:59:16.630Z,13.60
2023-01-27T07:01:46.574Z,15.73
2023-01-27T07:04:16.496Z,16.95
2023-01-27T07:06:46.453Z,17.92
2023-01-27T07:09:16.505Z,14.18
2023-01-27T07:11:46.916Z,19.02
2023-01-27T07:14:16.758Z,16.85
2023-01-27T07:16:46.764Z,19.10
2023-01-27T07:19:16.948Z,16.95
2023-01-27T07:21:47.966Z,18.23
2023-01-27T07:24:17.779Z,13.90
2023-01-27T07:26:49.273Z,15.02
2023-01-27T07:29:19.191Z,17.10
2023-01-27T07:31:49.047Z,15.43
2023-01-27T07:34:18.990Z,14.32
2023-01-27T07:36:48.803Z,13.93
2023-01-27T07:39:18.797Z,16.67
2023-01-27T07:41:51.573Z,10.38
2023-01-27T07:44:23.253Z,11.77
2023-01-27T07:46:53.109Z,11.43
2023-01-27T07:49:22.974Z,12.07
2023-01-27T07:51:53.024Z,14.88
2023-01-27T07:54:22.939Z,8.75
2023-01-27T07:56:52.765Z,10.32
2023-01-27T07:59:22.809Z,11.32
2023-01-27T08:01:52.539Z,9.65
2023-01-27T08:04:22.677Z,11.57
2023-01-27T08:06:52.804Z,11.07
2023-01-27T08:09:22.586Z,9.63
2023-01-27T08:11:52.471Z,9.40
2023-01-27T08:14:22.549Z,11.30
2023-01-27T08:16:52.373Z,8.13
2023-01-27T08:19:22.377Z,8.00
2023-01-27T08:21:53.189Z,15.70
2023-01-27T08:24:23.066Z,12.27
2023-01-27T08:26:53.081Z,10.30
2023-01-27T08:29:23.234Z,7.35
2023-01-27T08:31:53.234Z,16.58
2023-01-27T08:34:23.126Z,7.40
2023-01-27T08:36:53.056Z,7.68
2023-01-27T08:39:22.881Z,10.40
2023-01-27T08:41:52.697Z,9.13
2023-01-27T08:44:22.753Z,13.25
2023-01-27T08:46:53.082Z,9.25
2023-01-27T08:49:23.340Z,10.73
2023-01-27T08:51:53.261Z,10.95
2023-01-27T08:54:23.084Z,9.55
2023-01-27T08:56:52.904Z,8.45
2023-01-27T08:59:22.717Z,17.25
2023-01-27T09:01:52.629Z,18.75
2023-01-27T09:04:27.601Z,8.02
2023-01-27T09:06:57.612Z,8.88
2023-01-27T09:09:27.523Z,10.10
2023-01-27T09:11:57.642Z,7.68
2023-01-27T09:14:27.405Z,12.30
2023-01-27T09:16:57.225Z,8.15
2023-01-27T09:19:27.129Z,10.10
2023-01-27T09:21:57.915Z,7.70
2023-01-27T09:24:27.949Z,9.65
2023-01-27T09:27:00.025Z,18.77
2023-01-27T09:29:31.240Z,19.30
2023-01-27T09:32:01.146Z,10.73
2023-01-27T09:34:31.236Z,6.10
2023-01-27T09:37:09.101Z,10.95
2023-01-27T09:39:46.860Z,8.10
2023-01-27T09:42:55.781Z,5.13
2023-01-27T09:45:52.163Z,9.70
2023-01-27T09:48:50.128Z,13.02
2023-01-27T09:51:59.081Z,6.80
2023-01-27T09:54:55.028Z,13.27
2023-01-27T09:57:55.382Z,11.25
2023-01-27T10:01:04.271Z,13.70
2023-01-27T10:04:10.112Z,11.80
2023-01-27T10:07:19.031Z,5.78
2023-01-27T10:10:17.969Z,17.10
2023-01-27T10:13:15.472Z,8.23
2023-01-27T10:16:15.097Z,4.78
2023-01-27T10:19:15.995Z,4.45
2023-01-27T10:22:12.647Z,7.15
2023-01-27T10:25:11.238Z,5.13
2023-01-27T10:27:49.390Z,6.03
2023-01-27T10:30:39.504Z,13.18
2023-01-27T10:33:48.354Z,11.88
2023-01-27T10:36:28.955Z,4.53
2023-01-27T10:39:37.929Z,7.28
2023-01-27T10:42:33.857Z,9.13
2023-01-27T10:45:26.497Z,5.50
2023-01-27T10:48:13.176Z,16.48
2023-01-27T10:50:49.926Z,6.80
2023-01-27T10:53:43.738Z,8.45
2023-01-27T10:56:45.467Z,7.07
2023-01-27T10:59:50.215Z,4.68
2023-01-27T11:03:00.949Z,7.18
2023-01-27T11:05:40.004Z,5.60
2023-01-27T11:08:23.547Z,4.97
2023-01-27T11:11:17.310Z,14.48
2023-01-27T11:13:48.207Z,7.82
2023-01-27T11:16:20.788Z,10.45
2023-01-27T11:19:02.841Z,9.05
2023-01-27T11:21:34.682Z,10.73
2023-01-27T11:24:38.752Z,8.93
2023-01-27T11:27:22.019Z,10.18
2023-01-27T11:30:02.205Z,8.93
2023-01-27T11:33:12.458Z,8.45
2023-01-27T11:35:42.444Z,6.95
2023-01-27T11:38:21.006Z,11.27
2023-01-27T11:40:56.458Z,10.43
2023-01-27T11:43:30.324Z,10.48
2023-01-27T11:46:10.033Z,7.55
2023-01-27T11:48:44.437Z,11.70
2023-01-27T11:51:24.820Z,7.90
2023-01-27T11:54:18.939Z,7.40
2023-01-27T11:56:51.390Z,9.77
2023-01-27T11:59:33.179Z,8.85
2023-01-27T12:02:20.292Z,8.95
2023-01-27T12:05:18.771Z,11.23
2023-01-27T12:08:04.914Z,11.18
2023-01-27T12:10:46.571Z,13.07
2023-01-27T12:13:27.497Z,10.75
2023-01-27T12:16:06.920Z,11.43
2023-01-27T12:18:52.639Z,10.63
2023-01-27T12:21:24.447Z,19.45
2023-01-27T12:23:59.003Z,13.40
2023-01-27T12:26:41.285Z,15.38
2023-01-27T12:29:29.477Z,12.30
2023-01-27T12:32:02.741Z,12.73
2023-01-27T12:34:40.145Z,15.05
2023-01-27T12:37:21.348Z,14.15
2023-01-27T12:40:09.850Z,12.10
2023-01-27T12:42:46.590Z,12.38
2023-01-27T12:45:31.784Z,12.30
2023-01-27T12:48:21.791Z,14.30
2023-01-27T12:50:59.873Z,12.18
2023-01-27T12:56:22.478Z,20.48
2023-01-27T12:59:01.910Z,13.73
2023-01-27T13:01:42.970Z,17.85
2023-01-27T13:04:22.563Z,28.15
2023-01-27T13:07:07.397Z,32.60
2023-01-27T13:09:59.643Z,20.73
2023-01-27T13:12:52.927Z,30.83
2023-01-27T13:15:37.873Z,36.53
2023-01-27T13:18:26.117Z,52.60
2023-01-27T13:21:21.746Z,45.75
2023-01-27T13:23:55.220Z,41.00
2023-01-27T13:26:35.026Z,42.97
2023-01-27T13:29:31.509Z,41.40
2023-01-27T13:32:25.516Z,35.53
2023-01-27T13:35:34.529Z,28.23
2023-01-27T13:38:37.385Z,26.13
2023-01-27T13:41:20.687Z,23.20
2023-01-27T13:44:15.754Z,25.30
2023-01-27T13:46:46.834Z,21.52
2023-01-27T13:49:34.477Z,25.27
2023-01-27T13:52:04.378Z,33.80
2023-01-27T13:54:34.598Z,21.10
2023-01-27T13:57:42.889Z,22.13
2023-01-27T14:00:25.728Z,16.00
2023-01-27T14:03:34.690Z,17.17
2023-01-27T14:06:26.949Z,12.25
2023-01-27T14:09:35.937Z,9.15
2023-01-27T14:12:37.100Z,11.32
2023-01-27T14:15:41.084Z,10.15
2023-01-27T14:18:37.402Z,5.65
2023-01-27T14:21:48.468Z,16.10
2023-01-27T14:24:50.486Z,13.60
2023-01-27T14:27:48.274Z,6.97
2023-01-27T14:30:31.480Z,13.93
2023-01-27T14:33:22.659Z,12.73
2023-01-27T14:36:13.204Z,9.02
2023-01-27T14:39:22.248Z,8.07
2023-01-27T14:42:05.013Z,11.30
2023-01-27T14:45:03.099Z,5.43
2023-01-27T14:48:01.019Z,8.95
2023-01-27T14:51:00.725Z,6.32
2023-01-27T14:53:53.916Z,12.43
2023-01-27T14:57:03.493Z,6.80
2023-01-27T14:59:58.030Z,20.42
2023-01-27T15:03:01.730Z,9.43
2023-01-27T15:05:55.340Z,9.43
2023-01-27T15:09:04.197Z,8.30
2023-01-27T15:12:07.950Z,14.15
2023-01-27T15:15:17.079Z,8.48
2023-01-27T15:18:25.999Z,6.05
2023-01-27T15:21:34.535Z,11.82
2023-01-27T15:24:27.211Z,10.48
2023-01-27T15:26:57.599Z,6.40
2023-01-27T15:29:30.845Z,5.00
2023-01-27T15:32:28.685Z,6.45
2023-01-27T15:38:19.294Z,6.90
2023-01-27T15:41:12.219Z,5.80
2023-01-27T15:44:03.013Z,6.95
2023-01-27T15:46:39.483Z,5.20
2023-01-27T15:49:22.089Z,6.53
2023-01-27T15:51:55.247Z,9.10
2023-01-27T15:54:33.375Z,5.07
2023-01-27T15:59:59.170Z,5.13
2023-01-27T16:02:34.518Z,6.85
2023-01-27T16:05:32.968Z,7.53
2023-01-27T16:08:05.657Z,7.78
2023-01-27T16:10:37.661Z,8.90
2023-01-27T16:13:28.689Z,8.30
2023-01-27T16:16:24.615Z,4.57
2023-01-27T16:19:31.373Z,13.60
2023-01-27T16:22:15.150Z,6.00
2023-01-27T16:25:00.567Z,10.85
2023-01-27T16:28:09.620Z,6.03
2023-01-27T16:30:49.771Z,3.97
2023-01-27T16:33:40.691Z,7.07
2023-01-27T16:36:30.380Z,6.85
2023-01-27T16:39:27.516Z,4.90
2023-01-27T16:42:01.572Z,13.93
2023-01-27T16:44:53.093Z,4.00
2023-01-27T16:47:30.648Z,5.70
2023-01-27T16:50:02.306Z,6.63
2023-01-27T16:52:42.034Z,5.30
2023-01-27T16:55:23.853Z,6.28
2023-01-27T16:57:56.111Z,5.55
2023-01-27T17:00:33.829Z,5.72
2023-01-27T17:03:10.437Z,6.85
2023-01-27T17:05:42.128Z,9.20
2023-01-27T17:08:37.762Z,7.53
2023-01-27T17:11:21.262Z,8.52
2023-01-27T17:14:02.918Z,6.60
2023-01-27T17:16:45.326Z,5.90
2023-01-27T17:19:28.662Z,5.65
2023-01-27T17:22:03.266Z,6.85
2023-01-27T17:24:40.119Z,7.88
2023-01-27T17:27:38.145Z,6.93
2023-01-27T17:30:26.904Z,5.13
2023-01-27T17:33:00.549Z,5.38
2023-01-27T17:35:40.318Z,8.48
2023-01-27T17:38:18.174Z,8.38
2023-01-27T17:40:50.774Z,9.52
2023-01-27T17:43:35.137Z,9.30
2023-01-27T17:46:26.232Z,18.77
2023-01-27T17:49:08.952Z,11.65
2023-01-27T17:51:48.233Z,9.35
2023-01-27T17:54:43.368Z,7.18
2023-01-27T17:57:34.204Z,10.43
2023-01-27T18:00:12.652Z,8.32
2023-01-27T18:03:04.685Z,8.55
2023-01-27T18:05:38.794Z,15.30
2023-01-27T18:08:08.843Z,5.40
2023-01-27T18:10:42.565Z,8.32
2023-01-27T18:13:40.391Z,5.55
2023-01-27T18:16:21.074Z,6.43
2023-01-27T18:18:51.971Z,7.90
2023-01-27T18:21:27.214Z,6.97
2023-01-27T18:24:00.237Z,5.78
2023-01-27T18:26:41.172Z,17.25
2023-01-27T18:29:39.024Z,13.75
2023-01-27T18:32:21.351Z,7.60
2023-01-27T18:34:57.503Z,12.60
2023-01-27T18:37:34.772Z,5.22
2023-01-27T18:40:25.141Z,8.53
2023-01-27T18:42:56.231Z,8.32
2023-01-27T18:45:27.267Z,6.70
2023-01-27T18:47:58.157Z,10.68
2023-01-27T18:50:31.640Z,9.52
2023-01-27T18:53:01.933Z,7.10
2023-01-27T18:55:32.880Z,10.07
2023-01-27T18:58:02.952Z,10.35
2023-01-27T19:00:39.240Z,8.57
2023-01-27T19:03:17.515Z,10.50
2023-01-27T19:08:19.290Z,6.18
2023-01-27T19:10:50.250Z,13.25
2023-01-27T19:13:20.601Z,13.43
2023-01-27T19:15:53.273Z,9.05
2023-01-27T19:18:28.752Z,6.82
2023-01-27T19:20:58.521Z,7.05
2023-01-27T19:23:28.542Z,8.80
2023-01-27T19:26:01.551Z,7.10
2023-01-27T19:28:37.546Z,9.95
2023-01-27T19:31:09.126Z,7.30
2023-01-27T19:33:40.388Z,10.60
2023-01-27T19:36:32.892Z,8.35
2023-01-27T19:39:21.769Z,10.13
2023-01-27T19:41:51.529Z,6.90
2023-01-27T19:44:21.341Z,8.82
2023-01-27T19:46:51.212Z,6.90
2023-01-27T19:49:21.839Z,4.82
2023-01-27T19:51:51.879Z,6.43
2023-01-27T19:54:21.768Z,6.63
2023-01-27T19:56:51.672Z,6.93
2023-01-27T19:59:22.100Z,5.43
2023-01-27T20:01:52.074Z,5.18
2023-01-27T20:04:21.949Z,5.43
2023-01-27T20:06:51.960Z,4.10
2023-01-27T20:09:21.730Z,23.40
2023-01-27T20:11:51.480Z,6.38
2023-01-27T20:14:25.239Z,6.00
2023-01-27T20:16:54.983Z,4.65
2023-01-27T20:19:24.935Z,4.80
2023-01-27T20:21:55.932Z,6.28
2023-01-27T20:24:25.866Z,6.63
2023-01-27T20:26:55.883Z,5.63
2023-01-27T20:29:25.577Z,5.30
2023-01-27T20:31:55.441Z,6.75
2023-01-27T20:34:25.105Z,5.57
2023-01-27T20:36:55.010Z,4.45
2023-01-27T20:39:25.849Z,4.45
2023-01-27T20:41:55.772Z,5.45
2023-01-27T20:44:25.512Z,4.60
2023-01-27T20:46:55.551Z,5.25
2023-01-27T20:49:25.367Z,4.70
2023-01-27T20:51:56.146Z,5.18
2023-01-27T20:54:25.874Z,4.18
2023-01-27T20:56:55.475Z,4.97
2023-01-27T20:59:25.171Z,7.95
2023-01-27T21:01:55.011Z,4.05
2023-01-27T21:04:24.859Z,5.22
2023-01-27T21:06:54.517Z,4.20
2023-01-27T21:09:24.316Z,5.93
2023-01-27T21:11:54.043Z,10.93
2023-01-27T21:14:23.739Z,5.70
2023-01-27T21:16:53.562Z,3.78
2023-01-27T21:19:23.308Z,4.65
2023-01-27T21:21:53.166Z,6.60
2023-01-27T21:24:23.128Z,4.78
2023-01-27T21:26:53.842Z,4.35
2023-01-27T21:29:23.632Z,6.68
2023-01-27T21:31:53.469Z,10.75
2023-01-27T21:34:23.671Z,14.65
2023-01-27T21:36:53.542Z,5.35
2023-01-27T21:39:24.145Z,7.03
2023-01-27T21:42:14.365Z,8.65
2023-01-27T21:45:03.660Z,8.32
2023-01-27T21:47:33.460Z,4.60
2023-01-27T21:50:03.296Z,6.35
2023-01-27T21:52:52.943Z,5.55
2023-01-27T21:55:26.042Z,4.05
2023-01-27T21:57:57.687Z,4.05
2023-01-27T22:00:29.582Z,4.93
2023-01-27T22:03:01.759Z,6.75
2023-01-27T22:05:33.585Z,5.75
2023-01-27T22:08:04.378Z,7.72
2023-01-27T22:10:34.582Z,6.55
2023-01-27T22:13:06.229Z,11.50
2023-01-27T22:15:36.204Z,8.30
2023-01-27T22:18:06.070Z,8.82
2023-01-27T22:20:36.242Z,8.63
2023-01-27T22:23:06.001Z,5.72
2023-01-27T22:25:35.875Z,6.53
2023-01-27T22:28:05.536Z,6.43
2023-01-27T22:30:35.255Z,6.85
2023-01-27T22:33:05.057Z,10.02
2023-01-27T22:35:34.639Z,8.32
2023-01-27T22:38:04.399Z,11.20
2023-01-27T22:40:34.872Z,5.95
2023-01-27T22:43:11.034Z,12.50
2023-01-27T22:45:41.928Z,14.75
2023-01-27T22:48:11.692Z,14.55
2023-01-27T22:50:42.199Z,23.38
2023-01-27T22:53:12.804Z,13.32
2023-01-27T22:55:42.514Z,15.63
2023-01-27T22:58:12.500Z,17.08
2023-01-27T23:00:42.277Z,18.67
2023-01-27T23:03:12.044Z,21.73
2023-01-27T23:05:41.636Z,16.88
2023-01-27T23:08:11.611Z,12.80
2023-01-27T23:10:41.168Z,9.85
2023-01-27T23:13:11.188Z,14.23
2023-01-27T23:15:40.944Z,16.75
2023-01-27T23:18:13.224Z,11.85
2023-01-27T23:20:44.350Z,11.48
2023-01-27T23:23:16.491Z,11.50
2023-01-27T23:25:48.512Z,10.27
2023-01-27T23:28:21.734Z,6.50
2023-01-27T23:30:52.659Z,10.80
2023-01-27T23:33:23.101Z,9.82
2023-01-27T23:35:59.143Z,7.22
2023-01-27T23:38:32.841Z,9.65
2023-01-27T23:41:05.328Z,11.73
2023-01-27T23:43:36.045Z,10.57
2023-01-27T23:46:05.982Z,13.95
2023-01-27T23:48:35.711Z,20.88
2023-01-27T23:51:10.660Z,11.80
2023-01-27T23:53:40.369Z,11.15
2023-01-27T23:56:13.241Z,12.90
2023-01-27T23:58:43.011Z,10.13
